Tiempo atmosférico en la estación meteorológica de Os De Balaguer, Lleida (515 m.)



Fecha
DESCASC
Temp. máxima en grados centígrados (hora)
DESCASC
Temp. mínima en grados centígrados (hora)
DESCASC
Temp. media en grados centígrados
DESCASC
Racha de viento máxima en m/sg (hora)
DESCASC
Velocidad máxima media en intervalos de 10 minutos(hora)
DESCASC
Precipitaciones diarias en mm
DESCASC
Precipitaciones de 00:00 a 06:00 en mm
DESCASC
Precipitaciones de 06:00 a 12:00 en mm
DESCASC
Precipitaciones de 12:00 a 18:00 en mm
DESCASC
Precipitaciones de 18:00 a 24:00 en mm
DESCASC
16-06-2019 29.8 (16:50) 10.4 (06:40) 20.1 9.44 (15:10) 5.28 (14:20) 0 0 0 0 0
15-06-2019 26.5 (16:30) 12.4 (05:30) 19.4 12.5 (16:50) 6.94 (16:40) 0 0 0 0 0
14-06-2019 26.9 (17:10) 14 (00:00) 20.4 11.67 (14:10) 6.67 (14:10) 0 0 0 0 0
13-06-2019 26.7 (16:30) 8.3 (00:00) 17.5 9.17 (17:30) 5 (11:50) 0 0 0 0 0
12-06-2019 22.5 (18:20) 5.2 (00:00) 13.8 9.72 (14:50) 5.83 (14:00) 0 0 0 0 0
11-06-2019 16.8 (18:40) 8.4 (00:00) 12.6 7.5 (01:30) 4.44 (17:20) 9.8 0.4 8 1.4 0
10-06-2019 25.5 (16:40) 9.7 (00:00) 17.6 11.39 (17:20) 6.67 (17:30) 0 0 0 0 0
09-06-2019 29.3 (16:50) 14.1 (00:00) 21.7 6.67 (18:10) 4.44 (05:40) 0 0 0 0 0
08-06-2019 26.5 (16:30) 7.9 (00:00) 17.2 9.17 (12:50) 5.28 (16:00) 0 0 0 0 0
07-06-2019 24 (16:30) 11.5 (00:00) 17.8 11.67 (17:10) 6.39 (16:50) 0 0 0 0 0
06-06-2019 24.5 (15:10) 7.1 (00:00) 15.8 12.78 (16:20) 5.83 (17:30) 0 0 0 0 0
05-06-2019 21.2 (17:30) 12.1 (00:00) 16.7 12.78 (16:40) 6.67 (19:30) 1.8 0 1.8 0 0
04-06-2019 30.6 (15:40) 13.9 (00:00) 22.3 10.83 (21:40) 7.22 (21:50) 0 0 0 0 0
03-06-2019 31.6 (16:10) 14 (00:00) 22.8 8.89 (18:20) 4.72 (06:30) 0 0 0 0 0
02-06-2019 31.6 (16:40) 12.8 (00:00) 22.2 7.5 (17:30) 4.72 (17:30) 0 0 0 0 0
01-06-2019 30.2 (15:30) 11.7 (00:00) 21 7.78 (16:40) 5.83 (20:00) 0 0 0 0 0
31-05-2019 28.6 (17:20) 10 (00:00) 19.3 7.78 (19:30) 4.17 (16:40) 0 0 0 0 0
30-05-2019 25.9 (16:30) 7.3 (00:00) 16.6 8.06 (15:50) 5.28 (13:00) 0 0 0 0 0
29-05-2019 23.3 (16:40) 5.1 (00:00) 14.2 10.83 (13:30) 6.11 (15:00) 0 0 0 0 0
28-05-2019 23.3 (17:00) 9.7 (00:00) 16.5 11.11 (19:00) 6.94 (18:00) 0 0 0 0 0
27-05-2019 24.2 (17:50) 7.3 (00:00) 15.8 10 (20:00) 6.11 (13:50) 0 0 0 0 0
26-05-2019 23.8 (16:40) 8 (00:00) 15.9 11.39 (15:20) 7.5 (15:20) 0 0 0 0 0
25-05-2019 22 (18:40) 10.9 (00:00) 16.4 7.78 (12:50) 4.44 (12:40) 0.2 0 0.2 0 0
24-05-2019 18 (00:00) 12.1 (00:00) 15.1 6.67 (17:20) 4.17 (17:20) 21.6 3.2 16.4 2 0
23-05-2019 28.1 (15:10) 10 (00:00) 19.1 8.61 (16:40) 5.56 (16:00) 0 0 0 0 0
22-05-2019 25.2 (18:20) 7.3 (00:00) 16.3 8.33 (16:10) 4.44 (16:40) 0 0 0 0 0

Gráficas

Temp. máximas Temp. mínimas Temp. medias Precipitaciones Rachas de viento máximas Velocidades máximas media en intervalos de 10 minutos

Datos horarios

Fecha y hora oficial Temperatura (ºC) Velocidad del viento (km/h) Dirección del viento Racha (km/h) Dirección de racha Precipitación (mm) Presión (hPa) Tendencia (hPa) Humedad (%)
2019-06-20 23:00:00 16.7 8 Nordeste 16 Nordeste 0 -- -- 90
2019-06-20 22:00:00 18 10 Nordeste 19 Nordeste 0 -- -- 88
2019-06-20 21:00:00 18.4 11 Nordeste 17 Sudeste 0.6 -- -- 89
2019-06-20 20:00:00 18.6 10 Sudeste -- -- 0.8 -- -- 81
2019-06-20 19:00:00 23.4 13 Sur 29 Sur 0 -- -- 56
2019-06-20 18:00:00 27.5 18 Sur 39 Sudoeste 0 -- -- 47
2019-06-20 17:00:00 28 12 Sudoeste 32 Sudoeste 0 -- -- 44
2019-06-20 16:00:00 29.9 14 Sudoeste 31 Sudoeste 0 -- -- 40
2019-06-20 15:00:00 29.2 19 Sudoeste 31 Sur 0 -- -- 41
2019-06-20 14:00:00 29 18 Sur 37 Sur 0 -- -- 44
2019-06-20 13:00:00 27.4 14 Sur 35 Sudoeste 0 -- -- 45
2019-06-20 12:00:00 27.3 13 Sur 28 Sur 0 -- -- 46
2019-06-20 11:00:00 25.6 8 Sudeste 26 Este 0 -- -- 50
2019-06-20 10:00:00 24.7 7 Este 20 Este 0 -- -- 51
2019-06-20 09:00:00 23.3 6 Sudeste 18 Este 0 -- -- 55
2019-06-20 08:00:00 21.2 7 Sudeste 24 Nordeste 0 -- -- 62
2019-06-20 07:00:00 20.3 16 Nordeste 28 Nordeste 0 -- -- 61
2019-06-20 06:00:00 17.8 9 Nordeste 15 Nordeste 0 -- -- 72
2019-06-20 05:00:00 18 9 Nordeste 17 Nordeste 0 -- -- 70
2019-06-20 04:00:00 18.9 9 Nordeste 16 Nordeste 0 -- -- 66
2019-06-20 03:00:00 20.9 9 Nordeste 20 Norte 0 -- -- 58
2019-06-20 02:00:00 19.6 12 Nordeste 14 Nordeste 0 -- -- 65
2019-06-20 01:00:00 18.8 6 Nordeste 10 Nordeste 0 -- -- 65
2019-06-20 00:00:00 19.6 5 Este 7 Este 0 -- -- 60
2019-06-19 23:00:00 21.1 6 Sudoeste 11 Sudoeste 0 -- -- 52
2019-06-19 22:00:00 22.1 5 Este 8 Nordeste 0 -- -- 47
2019-06-19 21:00:00 27.5 3 Oeste 19 Sudoeste 0 -- -- 35
2019-06-19 20:00:00 29.7 8 Noroeste 25 Sudoeste 0 -- -- 32
2019-06-19 19:00:00 30.8 14 Sudoeste 29 Oeste 0 -- -- 30
2019-06-19 18:00:00 31.9 10 Oeste 29 Sudoeste 0 -- -- 28
2019-06-19 17:00:00 30.7 18 Sudoeste 30 Sudoeste 0 -- -- 28
2019-06-19 16:00:00 30.1 16 Sudoeste -- -- -- -- -- 28
2019-06-19 15:00:00 28.3 17 Sudoeste -- -- -- -- -- 33
2019-06-19 14:00:00 29.5 15 Sudoeste 31 Sudoeste 0 -- -- 31
2019-06-19 13:00:00 29.4 10 Sudoeste -- -- -- -- -- 30
2019-06-19 12:00:00 -- -- -- -- -- -- -- -- --
2019-06-19 11:00:00 -- -- -- -- -- -- -- -- --
2019-06-19 10:00:00 -- -- -- -- -- -- -- -- --
2019-06-19 09:00:00 -- -- -- -- -- -- -- -- --
2019-06-19 08:00:00 -- -- -- -- -- -- -- -- --
2019-06-19 07:00:00 -- -- -- -- -- -- -- -- --
2019-06-19 06:00:00 -- -- -- -- -- -- -- -- --
2019-06-19 05:00:00 -- -- -- -- -- -- -- -- --
2019-06-19 04:00:00 13.7 5 Nordeste 10 Nordeste 0 -- -- 57
2019-06-19 03:00:00 14.8 4 Nordeste 12 Nordeste 0 -- -- 52
2019-06-19 02:00:00 17.3 8 Nordeste 18 Nordeste 0 -- -- 44
2019-06-19 01:00:00 17.7 8 Nordeste 16 Este 0 -- -- 41
2019-06-19 00:00:00 19.7 12 Nordeste 19 Este 0 -- -- 35
2019-06-18 23:00:00 21.7 11 Este 24 Este 0 -- -- 32
2019-06-18 22:00:00 22.3 15 Nordeste 27 Nordeste 0 -- -- 31
2019-06-18 21:00:00 24 7 Nordeste 29 Este 0 -- -- 34
2019-06-18 20:00:00 26.4 12 Este 27 Este 0 -- -- 32
2019-06-18 19:00:00 28 14 Sudeste 32 Sur 0 -- -- 34
2019-06-18 18:00:00 30 18 Sur 38 Sur 0 -- -- 32
2019-06-18 17:00:00 32.2 19 Sur 36 Sudoeste 0 -- -- 29
2019-06-18 16:00:00 32.1 18 Sur 30 Sudoeste 0 -- -- 29
2019-06-18 15:00:00 32 12 Sur 30 Sudeste 0 -- -- 28
2019-06-18 14:00:00 31.7 10 Sudeste 25 Sudeste 0 -- -- 24
2019-06-18 13:00:00 30.9 9 Sudeste 24 Sur 0 -- -- 25
2019-06-18 12:00:00 29.4 10 Sudeste 19 Sur 0 -- -- 28
2019-06-18 11:00:00 27.1 10 Este 21 Este 0 -- -- 30
2019-06-18 10:00:00 24.2 13 Nordeste 19 Este 0 -- -- 40
2019-06-18 09:00:00 22.1 9 Nordeste 15 Nordeste 0 -- -- 45
2019-06-18 08:00:00 17.4 9 Nordeste 14 Este 0 -- -- 58
2019-06-18 07:00:00 17 7 Nordeste 14 Nordeste 0 -- -- 56
2019-06-18 06:00:00 16.5 9 Nordeste 17 Nordeste 0 -- -- 56
2019-06-18 05:00:00 16 8 Nordeste 17 Nordeste 0 -- -- 61
2019-06-18 04:00:00 15.9 8 Nordeste 12 Nordeste 0 -- -- 67
2019-06-18 03:00:00 16.5 8 Nordeste 13 Norte 0 -- -- 65
2019-06-18 02:00:00 17.6 11 Nordeste 14 Nordeste 0 -- -- 62
2019-06-18 01:00:00 17.6 11 Nordeste 14 Nordeste 0 -- -- 62
2019-06-18 00:00:00 17.7 8 Nordeste 11 Nordeste 0 -- -- 60
2019-06-17 23:00:00 19.3 7 Este 14 Este 0 -- -- 55
2019-06-17 22:00:00 22 10 Este 22 Sudeste 0 -- -- 48
2019-06-17 21:00:00 24.9 11 Sudeste 30 Sur 0 -- -- 48
2019-06-17 20:00:00 28.3 16 Sur 27 Sudeste 0 -- -- 42
2019-06-17 19:00:00 31.6 11 Sudoeste 26 Sur 0 -- -- 23
2019-06-17 18:00:00 32.2 14 Sudoeste 27 Sur 0 -- -- 22
2019-06-17 17:00:00 32.1 14 Sudoeste 31 Sudoeste 0 -- -- 23
2019-06-17 16:00:00 31.9 15 Sudoeste 27 Sudoeste 0 -- -- 24
2019-06-17 15:00:00 31.4 13 Sudoeste 27 Sudoeste 0 -- -- 27
2019-06-17 14:00:00 30.9 10 Sudoeste 26 Sudoeste 0 -- -- 26
2019-06-17 13:00:00 30.1 12 Sur 22 Sur 0 -- -- 29
2019-06-17 12:00:00 28.9 8 Sur 20 Sur 0 -- -- 35
2019-06-17 11:00:00 27.2 10 Sur 17 Sur 0 -- -- 38
2019-06-17 10:00:00 25.5 6 Nordeste 18 Nordeste 0 -- -- 39
2019-06-17 09:00:00 22.1 13 Nordeste 21 Nordeste 0 -- -- 47
2019-06-17 08:00:00 18.6 13 Nordeste 18 Nordeste 0 -- -- 55
2019-06-17 07:00:00 15.3 12 Nordeste 19 Nordeste 0 -- -- 65
2019-06-17 06:00:00 15.1 14 Nordeste 17 Nordeste 0 -- -- 68
2019-06-17 05:00:00 14.3 8 Nordeste 13 Nordeste 0 -- -- 77
2019-06-17 04:00:00 15.9 10 Nordeste 16 Nordeste 0 -- -- 72
2019-06-17 03:00:00 16.3 12 Nordeste 15 Norte 0 -- -- 69
2019-06-17 02:00:00 16.2 9 Nordeste 14 Nordeste 0 -- -- 65
2019-06-17 01:00:00 16.8 12 Norte 15 Nordeste 0 -- -- 70
2019-06-17 00:00:00 15.7 8 Nordeste 10 Este 0 -- -- 74
2019-06-16 23:00:00 17.9 5 Nordeste 8 Este 0 -- -- 67
2019-06-16 22:00:00 21.2 3 Sudoeste 23 Sudoeste 0 -- -- 57
2019-06-16 21:00:00 24.1 19 Sudoeste 28 Sudoeste 0 -- -- 47
2019-06-16 20:00:00 25.9 12 Sudoeste 20 Sudoeste 0 -- -- 30
2019-06-16 19:00:00 28 10 Sudoeste 25 Sudoeste 0 -- -- 27
2019-06-16 18:00:00 29 12 Sudoeste 26 Sudoeste 0 -- -- 24
2019-06-16 17:00:00 29.1 14 Sur 25 Sudoeste 0 -- -- 28
2019-06-16 16:00:00 29.1 12 Sudoeste 34 Sudoeste 0 -- -- 27
2019-06-16 15:00:00 27.6 17 Sudoeste 32 Sudoeste 0 -- -- 33
2019-06-16 14:00:00 26.4 17 Sudoeste 28 Sudoeste 0 -- -- 39
2019-06-16 13:00:00 26.1 14 Sudoeste 27 Sudoeste 0 -- -- 41
2019-06-16 12:00:00 23.6 8 Sur 21 Sudoeste 0 -- -- 50
2019-06-16 11:00:00 22.3 7 Sudoeste 16 Sudoeste 0 -- -- 55
2019-06-16 10:00:00 21 6 Sudoeste 13 Sur 0 -- -- 58
2019-06-16 09:00:00 18.7 5 Sudeste 8 Este 0 -- -- 68
2019-06-16 08:00:00 15.2 6 Nordeste 12 Nordeste 0 -- -- 84
2019-06-16 07:00:00 10.9 9 Nordeste 12 Este 0 -- -- 95
2019-06-16 06:00:00 11 7 Nordeste 12 Nordeste 0 -- -- 95
2019-06-16 05:00:00 11.8 8 Nordeste 14 Nordeste 0 -- -- 92
2019-06-16 04:00:00 11.7 7 Nordeste 11 Nordeste 0 -- -- 89
2019-06-16 03:00:00 12.1 8 Nordeste 12 Este 0 -- -- 84
2019-06-16 02:00:00 13.7 8 Este 19 Este 0 -- -- 78
2019-06-16 01:00:00 15.5 10 Este 25 Este 0 -- -- 68
2019-06-16 00:00:00 14 7 Nordeste 17 Este 0 -- -- 54
2019-06-15 23:00:00 18 10 Nordeste 14 Nordeste 0 -- -- 41
2019-06-15 22:00:00 20.4 4 Nordeste 17 Noroeste 0 -- -- 33
2019-06-15 21:00:00 22.2 5 Noroeste 27 Oeste 0 -- -- 32
2019-06-15 20:00:00 24.6 14 Sudoeste 28 Sudoeste 0 -- -- 29
2019-06-15 19:00:00 25.5 16 Sudoeste 33 Sudoeste 0 -- -- 26
2019-06-15 18:00:00 25.9 19 Sudoeste 29 Sudoeste 0 -- -- 26
2019-06-15 17:00:00 26 23 Sudoeste 45 Sudoeste 0 -- -- 28
2019-06-15 16:00:00 26.4 18 Sudoeste 37 Sudoeste 0 -- -- 29
2019-06-15 15:00:00 26.4 19 Sudoeste 41 Sur 0 -- -- 35
2019-06-15 14:00:00 24.2 24 Sudoeste 41 Sudoeste 0 -- -- 45
2019-06-15 13:00:00 22.7 23 Sudoeste 35 Sudoeste 0 -- -- 50
2019-06-15 12:00:00 21.2 17 Sudoeste 30 Sudoeste 0 -- -- 55
2019-06-15 11:00:00 20 17 Sudoeste 29 Sudoeste 0 -- -- 59
2019-06-15 10:00:00 18.8 19 Sudoeste 27 Sudoeste 0 -- -- 63
2019-06-15 09:00:00 17.3 13 Sur 20 Sur 0 -- -- 69
2019-06-15 08:00:00 16.6 5 Sur 9 Sudoeste 0 -- -- 76
2019-06-15 07:00:00 13.6 5 Sudoeste 14 Sudoeste 0 -- -- 86
2019-06-15 06:00:00 13.3 3 Este 7 Nordeste 0 -- -- 87
2019-06-15 05:00:00 12.7 5 Nordeste 12 Este 0 -- -- 88
2019-06-15 04:00:00 14.3 7 Nordeste 12 Nordeste 0 -- -- 82
2019-06-15 03:00:00 14.9 8 Nordeste 13 Este 0 -- -- 80
2019-06-15 02:00:00 16.7 10 Nordeste 15 Nordeste 0 -- -- 74
2019-06-15 01:00:00 17.5 11 Nordeste 15 Este 0 -- -- 71
2019-06-15 00:00:00 18.1 10 Nordeste 15 Nordeste 0 -- -- 71
2019-06-14 23:00:00 19.6 9 Este 23 Sur 0 -- -- 64
2019-06-14 22:00:00 21 9 Sudeste 15 Sudeste 0 -- -- 54
2019-06-14 21:00:00 23.3 11 Sur 17 Sur 0 -- -- 48
2019-06-14 20:00:00 25.4 14 Sudoeste 23 Sudoeste 0 -- -- 42
2019-06-14 19:00:00 26.5 10 Sudoeste 26 Sudoeste 0 -- -- 39
2019-06-14 18:00:00 26.9 14 Sudoeste 29 Sudoeste 0 -- -- 39
2019-06-14 17:00:00 26.8 12 Sudoeste 24 Sudoeste 0 -- -- 40
2019-06-14 16:00:00 24.4 7 Oeste 19 Sudoeste 0 -- -- 46
2019-06-14 15:00:00 20.8 9 Oeste 42 Oeste 0 -- -- 56
2019-06-14 14:00:00 25 21 Sudoeste 37 Sudoeste 0 -- -- 42
2019-06-14 13:00:00 24.8 23 Sudoeste 32 Sur 0 -- -- 43
2019-06-14 12:00:00 22.4 5 Sur 23 Este 0 -- -- 51
2019-06-14 11:00:00 23.6 6 Nordeste 14 Norte 0 -- -- 44
2019-06-14 10:00:00 21.5 5 Sur 17 Sudoeste 0 -- -- 48
2019-06-14 09:00:00 18.8 2 Sur 7 Sur 0 -- -- 55
2019-06-14 08:00:00 16.8 7 Nordeste 16 Nordeste 0 -- -- 59
2019-06-14 07:00:00 15.8 6 Nordeste 13 Este 0 -- -- 61
2019-06-14 06:00:00 16 6 Nordeste 13 Nordeste 0 -- -- 57
2019-06-14 05:00:00 16 4 Este 17 Norte 0 -- -- 54
2019-06-14 04:00:00 17.5 6 Nordeste 20 Este 0 -- -- 47
2019-06-14 03:00:00 18 10 Nordeste 22 Este 0 -- -- 45
2019-06-14 02:00:00 18.2 9 Nordeste 19 Nordeste 0 -- -- 44
2019-06-14 01:00:00 16.3 8 Nordeste 17 Nordeste 0 -- -- 51
2019-06-14 00:00:00 14 7 Nordeste 12 Nordeste 0 -- -- 58
2019-06-13 23:00:00 17.2 7 Nordeste 24 Nordeste 0 -- -- 46
2019-06-13 22:00:00 19 14 Nordeste 26 Este 0 -- -- 39
2019-06-13 21:00:00 20.2 12 Este 23 Nordeste 0 -- -- 36
2019-06-13 20:00:00 21.1 7 Sur 15 Sudoeste 0 -- -- 52
2019-06-13 19:00:00 21.1 6 Este 26 Sur 0 -- -- 49
2019-06-13 18:00:00 22.1 15 Sur 33 Sur 0 -- -- 44
2019-06-13 17:00:00 26.1 15 Sur 30 Sur 0 -- -- 36
2019-06-13 16:00:00 26.4 11 Sur 27 Este 0 -- -- 35
2019-06-13 15:00:00 25.1 13 Sur 28 Sudeste 0 -- -- 38
2019-06-13 14:00:00 24.2 15 Sudoeste 30 Sur 0 -- -- 41
2019-06-13 13:00:00 23.3 11 Sudeste 32 Sudeste 0 -- -- 44
2019-06-13 12:00:00 22.1 11 Sudeste 26 Este 0 -- -- 47
2019-06-13 11:00:00 20 10 Este 26 Nordeste 0 -- -- 49
2019-06-13 10:00:00 18.6 16 Este 27 Este 0 -- -- 41
2019-06-13 09:00:00 17 14 Nordeste 27 Este 0 -- -- 44
2019-06-13 08:00:00 13.3 8 Nordeste 15 Nordeste 0 -- -- 68
2019-06-13 07:00:00 9.3 10 Nordeste 15 Nordeste 0 -- -- 78
2019-06-13 06:00:00 8.5 8 Nordeste 14 Nordeste 0 -- -- 82
2019-06-13 05:00:00 9.1 8 Nordeste 16 Este 0 -- -- 80
2019-06-13 04:00:00 9.9 11 Nordeste 17 Nordeste 0 -- -- 77
2019-06-13 03:00:00 10.3 13 Nordeste 16 Nordeste 0 -- -- 77
2019-06-13 02:00:00 10.1 10 Nordeste 18 Este 0 -- -- 79
2019-06-13 01:00:00 9.3 6 Nordeste 11 Este 0 -- -- 81
2019-06-13 00:00:00 12 4 Este 13 Este 0 -- -- 69
2019-06-12 23:00:00 13.7 6 Nordeste 17 Sudeste 0 -- -- 63
2019-06-12 22:00:00 15.7 12 Sudeste 18 Sudeste 0 -- -- 53
2019-06-12 21:00:00 17.9 8 Sudoeste 18 Sudoeste 0 -- -- 39
2019-06-12 20:00:00 20.4 12 Sudoeste 22 Sudoeste 0 -- -- 35
2019-06-12 19:00:00 21.8 12 Sudoeste 21 Sudoeste 0 -- -- 32
2019-06-12 18:00:00 22.2 8 Sur 23 Sudoeste 0 -- -- 30
2019-06-12 17:00:00 21.9 11 Oeste 27 Oeste 0 -- -- 31
2019-06-12 16:00:00 21.4 12 Sudoeste 27 Sudoeste 0 -- -- 35
2019-06-12 15:00:00 20.5 15 Sudoeste 35 Sudoeste 0 -- -- 36
2019-06-12 14:00:00 19.2 21 Sudoeste 32 Sudoeste 0 -- -- 43
2019-06-12 13:00:00 17.8 13 Sudoeste 31 Sudoeste 0 -- -- 51
2019-06-12 12:00:00 16.7 9 Sudoeste 23 Sudoeste 0 -- -- 59
2019-06-12 11:00:00 14.8 11 Sur 18 Sur 0 -- -- 64
2019-06-12 10:00:00 13.9 10 Sudoeste 17 Sudoeste 0 -- -- 68
2019-06-12 09:00:00 12.2 4 Sudoeste 11 Este 0 -- -- 74
2019-06-12 08:00:00 9.9 6 Este 12 Norte 0 -- -- 84
2019-06-12 07:00:00 6.2 8 Nordeste 13 Nordeste 0 -- -- 95
2019-06-12 06:00:00 5.5 12 Este 16 Nordeste 0 -- -- 95
2019-06-12 05:00:00 5.9 8 Nordeste 12 Este 0 -- -- 93
2019-06-12 04:00:00 6.9 8 Norte 14 Nordeste 0 -- -- 93
2019-06-12 03:00:00 7 10 Nordeste 17 Nordeste 0 -- -- 91
2019-06-12 02:00:00 7.1 12 Nordeste 15 Este 0 -- -- 91
2019-06-12 01:00:00 7.6 8 Nordeste 13 Nordeste 0 -- -- 88
2019-06-12 00:00:00 8.5 11 Nordeste 14 Nordeste 0 -- -- 83
2019-06-11 23:00:00 9.9 9 Nordeste 15 Nordeste 0 -- -- 77
2019-06-11 22:00:00 11.8 7 Nordeste 24 Sudeste 0 -- -- 80
2019-06-11 21:00:00 13.1 13 Sudeste 23 Sudeste 0 -- -- 80
2019-06-11 20:00:00 15.4 9 Sudeste 20 Sur 0 -- -- 72
2019-06-11 19:00:00 16.1 9 Sur 20 Sur 0 -- -- 70
2019-06-11 18:00:00 16.4 10 Oeste 26 Sudoeste 0.2 -- -- 65
2019-06-11 17:00:00 15.2 10 Sudoeste 18 Sudoeste 0 -- -- 78
2019-06-11 16:00:00 13 5 Sudoeste 14 Oeste 0 -- -- 85
2019-06-11 15:00:00 12.6 7 Sudoeste 19 Sudoeste 0 -- -- 93
2019-06-11 14:00:00 10.7 12 Sudoeste 19 Sudoeste 0.2 -- -- 94
2019-06-11 13:00:00 10.8 4 Sur 9 Sudoeste 1 -- -- 96
2019-06-11 12:00:00 10.2 6 Sudoeste 8 Sudoeste 0.6 -- -- 98
2019-06-11 11:00:00 9.8 3 Noroeste 10 Sudoeste 1 -- -- 98
2019-06-11 10:00:00 9.7 6 Sudoeste 12 Sudoeste 1 -- -- 98
2019-06-11 09:00:00 9.4 0 Calma 8 Sudoeste 2 -- -- 97
2019-06-11 08:00:00 9.6 0 Calma 8 Norte 1.6 -- -- 96
2019-06-11 07:00:00 9.5 3 Nordeste 8 Sur 1.8 -- -- 93
2019-06-11 06:00:00 -- 0 Calma 11 Sudeste 0.4 -- -- --
2019-06-11 05:00:00 12.4 6 Sur 18 Sur 0 -- -- 61
2019-06-11 04:00:00 13.4 4 Sudoeste 22 Sudoeste 0 -- -- 59
2019-06-11 03:00:00 14.3 6 Norte 21 Norte 0 -- -- 54
2019-06-11 02:00:00 14.2 4 Sudoeste 27 Noroeste 0 -- -- 54
2019-06-11 01:00:00 14.5 9 Sudoeste 21 Oeste 0 -- -- 53
2019-06-11 00:00:00 15.2 5 Norte 15 Oeste 0 -- -- 50
2019-06-10 23:00:00 16 7 Oeste 27 Oeste 0 -- -- 46
2019-06-10 22:00:00 18.4 9 Oeste 19 Oeste 0 -- -- 36
2019-06-10 21:00:00 20.2 10 Sudoeste 29 Oeste 0 -- -- 33
2019-06-10 20:00:00 23 12 Oeste 27 Oeste 0 -- -- 22
2019-06-10 19:00:00 23.3 17 Sudoeste 36 Sudoeste 0 -- -- 27
2019-06-10 18:00:00 23.7 18 Oeste 41 Sudoeste 0 -- -- 35
2019-06-10 17:00:00 25.3 19 Sudoeste 37 Oeste 0 -- -- 36
2019-06-10 16:00:00 24.9 19 Sudoeste 40 Sur 0 -- -- 40
2019-06-10 15:00:00 24 22 Sudoeste 36 Sur 0 -- -- 42
2019-06-10 14:00:00 23.1 19 Sudoeste 33 Sudoeste 0 -- -- 46
2019-06-10 13:00:00 21.8 15 Sudoeste 30 Sur 0 -- -- 47
2019-06-10 12:00:00 20.1 15 Sudoeste 29 Sur 0 -- -- 54
2019-06-10 11:00:00 18.6 9 Sudoeste 19 Sur 0 -- -- 62
2019-06-10 10:00:00 16.8 12 Sudoeste 19 Sudoeste 0 -- -- 67
2019-06-10 09:00:00 15.7 6 Sur 12 Este 0 -- -- 72
2019-06-10 08:00:00 12.6 0 Calma 14 Sur 0 -- -- 83
2019-06-10 07:00:00 10.5 4 Sudeste 8 Este 0 -- -- 91
2019-06-10 06:00:00 10.7 0 Calma 10 Sur 0 -- -- 74
2019-06-10 05:00:00 11.9 4 Sudoeste 8 Oeste 0 -- -- 59
2019-06-10 04:00:00 12.8 2 Noroeste 6 Este 0 -- -- 61
2019-06-10 03:00:00 12.8 5 Nordeste 9 Este 0 -- -- 63
2019-06-10 02:00:00 14 5 Nordeste 12 Este 0 -- -- 58
2019-06-10 01:00:00 16 6 Este 13 Nordeste 0 -- -- 53
2019-06-10 00:00:00 17.2 8 Nordeste 14 Nordeste 0 -- -- 49
2019-06-09 23:00:00 18.3 9 Nordeste 14 Este 0 -- -- 46
2019-06-09 22:00:00 19.5 3 Sudoeste 12 Sur 0 -- -- 43
2019-06-09 21:00:00 22.3 3 Sur 15 Sur 0 -- -- 38
2019-06-09 20:00:00 24.4 11 Sur 22 Sur 0 -- -- 33
2019-06-09 19:00:00 27.7 13 Sur 24 Sudoeste 0 -- -- 28
2019-06-09 18:00:00 27.8 12 Sudoeste 22 Sudoeste 0 -- -- 27
2019-06-09 17:00:00 28.4 10 Oeste 16 Sudoeste 0 -- -- 27
2019-06-09 16:00:00 27.9 5 Este 19 Sur 0 -- -- 27
2019-06-09 15:00:00 26 14 Sudoeste 21 Sudoeste 0 -- -- 27
2019-06-09 14:00:00 26.6 6 Sudeste 20 Sudoeste 0 -- -- 28
2019-06-09 13:00:00 25.5 9 Sur 17 Sur 0 -- -- 30
2019-06-09 12:00:00 25.6 8 Sur 21 Sur 0 -- -- 31
2019-06-09 11:00:00 24.9 10 Sudeste 21 Sur 0 -- -- 32
2019-06-09 10:00:00 24.7 7 Nordeste 17 Este 0 -- -- 34
2019-06-09 09:00:00 21 8 Este 13 Norte 0 -- -- 46
2019-06-09 08:00:00 17 6 Nordeste 15 Nordeste 0 -- -- 57
2019-06-09 07:00:00 15.6 10 Nordeste 15 Nordeste 0 -- -- 57
2019-06-09 06:00:00 15.2 13 Este 24 Nordeste 0 -- -- 56
2019-06-09 05:00:00 15.9 13 Nordeste 19 Nordeste 0 -- -- 53
2019-06-09 04:00:00 15.8 14 Nordeste 18 Nordeste 0 -- -- 53
2019-06-09 03:00:00 14.4 12 Este 17 Este 0 -- -- 56
2019-06-09 02:00:00 15.1 8 Nordeste 13 Nordeste 0 -- -- 54
2019-06-09 01:00:00 16.8 9 Este 21 Este 0 -- -- 45
2019-06-09 00:00:00 17.3 13 Este 23 Este 0 -- -- 46
2019-06-08 23:00:00 17.1 8 Nordeste 12 Nordeste 0 -- -- 54
2019-06-08 22:00:00 17.7 3 Nordeste 22 Sudoeste 0 -- -- 53
2019-06-08 21:00:00 18.8 9 Sudoeste 26 Sudoeste 0 -- -- 52
2019-06-08 20:00:00 20.7 13 Sur 28 Sur 0 -- -- 47
2019-06-08 19:00:00 23 14 Sur 26 Sudoeste 0 -- -- 45
2019-06-08 18:00:00 26.1 15 Sudoeste 32 Sudoeste 0 -- -- 36
2019-06-08 17:00:00 26.3 11 Este 31 Sudoeste 0 -- -- 33
2019-06-08 16:00:00 25.7 19 Sudoeste 28 Sur 0 -- -- 32
2019-06-08 15:00:00 25.9 9 Sudoeste 26 Sudoeste 0 -- -- 34
2019-06-08 14:00:00 24.5 12 Sur 29 Sur 0 -- -- 41
2019-06-08 13:00:00 23.9 17 Sudoeste 33 Sudoeste 0 -- -- 41
2019-06-08 12:00:00 24 5 Sudoeste 22 Sur 0 -- -- 38
2019-06-08 11:00:00 21.5 9 Sudoeste 18 Sur 0 -- -- 47
2019-06-08 10:00:00 19.1 6 Sur 14 Sudoeste 0 -- -- 54
2019-06-08 09:00:00 18.1 6 Este 14 Este 0 -- -- 44
2019-06-08 08:00:00 13.7 9 Nordeste 15 Nordeste 0 -- -- 50
2019-06-08 07:00:00 9.4 12 Nordeste 17 Este 0 -- -- 58
2019-06-08 06:00:00 10.9 7 Norte 19 Este 0 -- -- 51
2019-06-08 05:00:00 10.4 11 Nordeste 16 Nordeste 0 -- -- 48
2019-06-08 04:00:00 11.8 10 Nordeste 20 Este 0 -- -- 42
2019-06-08 03:00:00 10.6 12 Nordeste 18 Este 0 -- -- 46
2019-06-08 02:00:00 10.7 13 Nordeste 18 Este 0 -- -- 47
2019-06-08 01:00:00 11.8 13 Nordeste 18 Este 0 -- -- 46
2019-06-08 00:00:00 11.7 14 Este 17 Nordeste 0 -- -- 50
2019-06-07 23:00:00 11.7 7 Nordeste 9 Norte 0 -- -- 52
2019-06-07 22:00:00 15.6 3 Nordeste 15 Oeste 0 -- -- 41
2019-06-07 21:00:00 19.4 8 Oeste 24 Oeste 0 -- -- 33
2019-06-07 20:00:00 21.5 14 Oeste 32 Oeste 0 -- -- 29
2019-06-07 19:00:00 22.5 16 Oeste 37 Sudoeste 0 -- -- 27
2019-06-07 18:00:00 23.2 16 Oeste 42 Oeste 0 -- -- 25
2019-06-07 17:00:00 23.3 14 Oeste 40 Oeste 0 -- -- 23
2019-06-07 16:00:00 23.4 19 Oeste 38 Oeste 0 -- -- 27
2019-06-07 15:00:00 22.7 18 Sudoeste 40 Sudoeste 0 -- -- 26
2019-06-07 14:00:00 21.9 21 Oeste 39 Oeste 0 -- -- 33
2019-06-07 13:00:00 21.7 13 Sudoeste 30 Oeste 0 -- -- 39
2019-06-07 12:00:00 20 14 Oeste 33 Noroeste 0 -- -- 53
2019-06-07 11:00:00 18.4 11 Noroeste 26 Oeste 0 -- -- 62
2019-06-07 10:00:00 20.5 12 Sur 21 Sur 0 -- -- 58
2019-06-07 09:00:00 19 5 Sudeste 24 Este 0 -- -- 62
2019-06-07 08:00:00 15.8 13 Nordeste 21 Este 0 -- -- 73
2019-06-07 07:00:00 13.5 8 Nordeste 17 Nordeste 0 -- -- 81
2019-06-07 06:00:00 13.3 12 Nordeste 22 Nordeste 0 -- -- 81
2019-06-07 05:00:00 13 11 Nordeste 21 Nordeste 0 -- -- 81
2019-06-07 04:00:00 11.8 6 Nordeste 13 Nordeste 0 -- -- 80
2019-06-07 03:00:00 13.1 5 Nordeste 20 Este 0 -- -- 71
2019-06-07 02:00:00 13.9 9 Nordeste 17 Nordeste 0 -- -- 66
2019-06-07 01:00:00 14.3 9 Nordeste 25 Nordeste 0 -- -- 65
2019-06-07 00:00:00 15 14 Nordeste 34 Este 0 -- -- 64
2019-06-06 23:00:00 16.1 21 Nordeste 36 Este 0 -- -- 54
2019-06-06 22:00:00 16.8 15 Nordeste 26 Este 0 -- -- 54
2019-06-06 21:00:00 17.6 9 Nordeste 26 Este 0 -- -- 55
2019-06-06 20:00:00 19.2 15 Este 31 Este 0 -- -- 50
2019-06-06 19:00:00 20.7 12 Sudeste 35 Sur 0 -- -- 48
2019-06-06 18:00:00 20.6 15 Sur 32 Sur 0 -- -- 50
2019-06-06 17:00:00 21.1 19 Sur 46 Sudoeste 0 -- -- 45
2019-06-06 16:00:00 21.7 17 Sur 39 Sur 0 -- -- 45
2019-06-06 15:00:00 23.9 15 Sur 31 Sudoeste 0 -- -- 36
2019-06-06 14:00:00 23.7 14 Sudoeste 31 Sur 0 -- -- 33
2019-06-06 13:00:00 21.9 10 Sur 26 Sur 0 -- -- 40
2019-06-06 12:00:00 20.3 8 Sudeste 22 Este 0 -- -- 42
2019-06-06 11:00:00 18.1 14 Sudeste 23 Sudeste 0 -- -- 50
2019-06-06 10:00:00 16.4 7 Este 19 Este 0 -- -- 56
2019-06-06 09:00:00 14.2 9 Nordeste 17 Este 0 -- -- 63
2019-06-06 08:00:00 11 9 Nordeste 15 Este 0 -- -- 77
2019-06-06 07:00:00 7.8 6 Nordeste 10 Norte 0 -- -- 84
2019-06-06 06:00:00 7.4 5 Nordeste 14 Nordeste 0 -- -- 85
2019-06-06 05:00:00 8.6 9 Nordeste 15 Nordeste 0 -- -- 82
2019-06-06 04:00:00 7.9 9 Nordeste 13 Nordeste 0 -- -- 85
2019-06-06 03:00:00 7.3 3 Nordeste 9 Nordeste 0 -- -- 85
2019-06-06 02:00:00 9.7 6 Nordeste 13 Nordeste 0 -- -- 76
2019-06-06 01:00:00 9.6 8 Norte 13 Noroeste 0 -- -- 75
2019-06-06 00:00:00 12.1 2 Nordeste 11 Sur 0 -- -- 66
2019-06-05 23:00:00 14.1 6 Oeste 20 Noroeste 0 -- -- 58
2019-06-05 22:00:00 14.9 8 Oeste 32 Oeste 0 -- -- 55
2019-06-05 21:00:00 16.4 13 Oeste 37 Oeste 0 -- -- 51
2019-06-05 20:00:00 18.6 18 Oeste 41 Oeste 0 -- -- 46
2019-06-05 19:00:00 20.8 17 Oeste 39 Oeste 0 -- -- 43
2019-06-05 18:00:00 20.8 16 Oeste 40 Sudoeste 0 -- -- 41
2019-06-05 17:00:00 20.3 18 Oeste 46 Sudoeste 0 -- -- 47
2019-06-05 16:00:00 19.6 23 Sudoeste 38 Oeste 0 -- -- 55
2019-06-05 15:00:00 18.3 19 Sudoeste 36 Sudoeste 0 -- -- 66
2019-06-05 14:00:00 17.8 8 Oeste 26 Oeste 0 -- -- 74
2019-06-05 13:00:00 16.2 11 Sudoeste 20 Sudoeste 0 -- -- 84
2019-06-05 12:00:00 13.9 9 Sudoeste 25 Sudoeste 1.6 -- -- 92
2019-06-05 11:00:00 15.5 14 Sudoeste 25 Sur 0.2 -- -- 88
2019-06-05 10:00:00 18.3 4 Sudoeste 18 Sur 0 -- -- 67
2019-06-05 09:00:00 17.6 9 Sur 17 Sudoeste 0 -- -- 68
2019-06-05 08:00:00 17.3 6 Sudeste 14 Sudeste 0 -- -- 65
2019-06-05 07:00:00 16.4 11 Nordeste 29 Nordeste 0 -- -- 65
2019-06-05 06:00:00 16.5 12 Nordeste 27 Nordeste 0 -- -- 63
2019-06-05 05:00:00 17.1 16 Nordeste 33 Nordeste 0 -- -- 55
2019-06-05 04:00:00 17.7 17 Nordeste 32 Nordeste 0 -- -- 49
2019-06-05 03:00:00 18.3 9 Este 30 Este 0 -- -- 41
2019-06-05 02:00:00 17.9 12 Este 24 Nordeste 0 -- -- 41
2019-06-05 01:00:00 18.5 7 Nordeste 30 Este 0 -- -- 40
2019-06-05 00:00:00 19.4 15 Este 35 Este 0 -- -- 38
2019-06-04 23:00:00 20 19 Este 37 Este 0 -- -- 37
2019-06-04 22:00:00 20.9 23 Este 39 Nordeste 0 -- -- 39
2019-06-04 21:00:00 22.3 14 Nordeste 29 Este 0 -- -- 35
2019-06-04 20:00:00 24.1 11 Este 28 Sur 0 -- -- 37
2019-06-04 19:00:00 25.9 11 Este 37 Este 0 -- -- 38
2019-06-04 18:00:00 29.6 12 Este 33 Este 0 -- -- 34
2019-06-04 17:00:00 28.7 11 Sudeste 33 Sudoeste 0 -- -- 33
2019-06-04 16:00:00 30 12 Sudeste 31 Este 0 -- -- 33
2019-06-04 15:00:00 30.2 11 Este 26 Sudeste 0 -- -- 30
2019-06-04 14:00:00 29.1 8 Sudeste 24 Sudoeste 0 -- -- 32
2019-06-04 13:00:00 28.6 9 Sudeste 26 Este 0 -- -- 30
2019-06-04 12:00:00 27 10 Este 28 Sudeste 0 -- -- 31
2019-06-04 11:00:00 25.1 14 Este 28 Nordeste 0 -- -- 32
2019-06-04 10:00:00 23.1 12 Sudeste 20 Sudeste 0 -- -- 35
2019-06-04 09:00:00 21.8 7 Nordeste 14 Nordeste 0 -- -- 39
2019-06-04 08:00:00 18 11 Nordeste 17 Nordeste 0 -- -- 47
2019-06-04 07:00:00 15.2 13 Nordeste 18 Nordeste 0 -- -- 53
2019-06-04 06:00:00 13.9 10 Nordeste 16 Nordeste 0 -- -- 59
2019-06-04 05:00:00 15.1 13 Nordeste 16 Nordeste 0 -- -- 54
2019-06-04 04:00:00 14.7 9 Nordeste 14 Nordeste 0 -- -- 55
2019-06-04 03:00:00 15.3 7 Nordeste 13 Nordeste 0 -- -- 55
2019-06-04 02:00:00 14.6 6 Este 11 Norte 0 -- -- 58
2019-06-04 01:00:00 16.9 4 Nordeste 16 Este 0 -- -- 50
2019-06-04 00:00:00 18.2 6 Sudeste 14 Este 0 -- -- 45
2019-06-03 23:00:00 19.4 9 Este 18 Este 0 -- -- 43
2019-06-03 22:00:00 20.9 8 Este 15 Este 0 -- -- 40
2019-06-03 21:00:00 23.1 5 Nordeste 19 Sudeste 0 -- -- 39
2019-06-03 20:00:00 25.3 10 Sudeste 24 Este 0 -- -- 36
2019-06-03 19:00:00 28.3 11 Sudeste 32 Sudoeste 0 -- -- 33
2019-06-03 18:00:00 29 14 Sudeste 30 Sur 0 -- -- 32
2019-06-03 17:00:00 29.6 12 Sudeste 27 Sudeste 0 -- -- 31
2019-06-03 16:00:00 31.2 10 Sur 24 Sur 0 -- -- 28
2019-06-03 15:00:00 30.2 8 Sudoeste 24 Sudoeste 0 -- -- 26
2019-06-03 14:00:00 29.1 10 Sudeste 18 Sur 0 -- -- 27
2019-06-03 13:00:00 27.5 12 Sudoeste 18 Sudoeste 0 -- -- 27
2019-06-03 12:00:00 27.5 5 Sudoeste 14 Sudeste 0 -- -- 27
2019-06-03 11:00:00 27.3 7 Sur 13 Este 0 -- -- 31
2019-06-03 10:00:00 24.2 9 Nordeste 18 Nordeste 0 -- -- 41
2019-06-03 09:00:00 21.2 8 Nordeste 18 Nordeste 0 -- -- 50
2019-06-03 08:00:00 17.5 4 Norte 18 Este 0 -- -- 52
2019-06-03 07:00:00 16.6 13 Nordeste 24 Nordeste 0 -- -- 50
2019-06-03 06:00:00 15.9 14 Nordeste 21 Nordeste 0 -- -- 53
2019-06-03 05:00:00 14.6 7 Nordeste 18 Nordeste 0 -- -- 56
2019-06-03 04:00:00 16 13 Norte 18 Nordeste 0 -- -- 50
2019-06-03 03:00:00 15.8 15 Nordeste 22 Nordeste 0 -- -- 49
2019-06-03 02:00:00 14 9 Nordeste 12 Nordeste 0 -- -- 60
2019-06-03 01:00:00 16.2 4 Este 9 Nordeste 0 -- -- 52
2019-06-03 00:00:00 15.9 5 Nordeste 11 Este 0 -- -- 55
2019-06-02 23:00:00 18.4 9 Este 19 Nordeste 0 -- -- 45
2019-06-02 22:00:00 20.2 9 Este 17 Este 0 -- -- 47
2019-06-02 21:00:00 23.6 10 Sudeste 21 Este 0 -- -- 39
2019-06-02 20:00:00 26.9 8 Sudeste 26 Sur 0 -- -- 35
2019-06-02 19:00:00 29.7 12 Sur 27 Sudeste 0 -- -- 33
2019-06-02 18:00:00 30.8 17 Sudoeste 27 Sur 0 -- -- 27
2019-06-02 17:00:00 31.3 13 Sudoeste 26 Sur 0 -- -- 26
2019-06-02 16:00:00 31.2 15 Sur 25 Sudoeste 0 -- -- 28
2019-06-02 15:00:00 31.1 12 Sudoeste 25 Sudoeste 0 -- -- 30
2019-06-02 14:00:00 30.1 14 Sudoeste 23 Sudoeste 0 -- -- 30
2019-06-02 13:00:00 28.8 12 Sur 23 Sudoeste 0 -- -- 33
2019-06-02 12:00:00 27.8 11 Sudoeste 19 Sudoeste 0 -- -- 36
2019-06-02 11:00:00 26.4 10 Sudoeste 16 Sudoeste 0 -- -- 42
2019-06-02 10:00:00 24.7 8 Sudoeste 14 Sudoeste 0 -- -- 44
2019-06-02 09:00:00 22 9 Este 14 Nordeste 0 -- -- 50
2019-06-02 08:00:00 17.4 7 Nordeste 17 Nordeste 0 -- -- 62
2019-06-02 07:00:00 13.2 11 Nordeste 14 Nordeste 0 -- -- 72
2019-06-02 06:00:00 13.1 9 Nordeste 13 Nordeste 0 -- -- 72
2019-06-02 05:00:00 13.9 7 Nordeste 14 Nordeste 0 -- -- 69
2019-06-02 04:00:00 13.9 9 Nordeste 13 Nordeste 0 -- -- 68
2019-06-02 03:00:00 13.8 7 Nordeste 13 Nordeste 0 -- -- 69
2019-06-02 02:00:00 14 7 Nordeste 11 Nordeste 0 -- -- 68
2019-06-02 01:00:00 14.9 6 Nordeste 12 Este 0 -- -- 64
2019-06-02 00:00:00 16.3 5 Nordeste 11 Este 0 -- -- 59
2019-06-01 23:00:00 19 10 Este 20 Sudeste 0 -- -- 52
2019-06-01 22:00:00 20.3 9 Sudeste 21 Sudeste 0 -- -- 48
2019-06-01 21:00:00 23.3 12 Sudeste 28 Sudoeste 0 -- -- 43
2019-06-01 20:00:00 27 21 Sudoeste 28 Sudoeste 0 -- -- 39
2019-06-01 19:00:00 28.8 10 Sur 27 Sur 0 -- -- 32
2019-06-01 18:00:00 29.5 10 Sudoeste 27 Sudoeste 0 -- -- 31
2019-06-01 17:00:00 29.7 15 Sudoeste 28 Sur 0 -- -- 30
2019-06-01 16:00:00 29.8 9 Oeste 24 Sudoeste 0 -- -- 29
2019-06-01 15:00:00 29.4 13 Sudoeste 25 Sur 0 -- -- 31
2019-06-01 14:00:00 28.7 15 Sudoeste 27 Sudoeste 0 -- -- 31
2019-06-01 13:00:00 28.2 12 Sudoeste 25 Sur 0 -- -- 33
2019-06-01 12:00:00 27.6 9 Sudoeste 23 Sudoeste 0 -- -- 32
2019-06-01 11:00:00 26.8 6 Este 12 Este 0 -- -- 40
2019-06-01 10:00:00 25 5 Sudeste 10 Sudoeste 0 -- -- 43
2019-06-01 09:00:00 21.8 9 Este 13 Nordeste 0 -- -- 50
2019-06-01 08:00:00 17.3 8 Nordeste 16 Nordeste 0 -- -- 67
2019-06-01 07:00:00 13 11 Nordeste 15 Nordeste 0 -- -- 79
2019-06-01 06:00:00 12.1 10 Nordeste 17 Este 0 -- -- 80
2019-06-01 05:00:00 12.9 10 Nordeste 15 Nordeste 0 -- -- 77
2019-06-01 04:00:00 12.6 10 Nordeste 14 Nordeste 0 -- -- 79
2019-06-01 03:00:00 12.6 7 Nordeste 13 Nordeste 0 -- -- 78
2019-06-01 02:00:00 14.7 12 Nordeste 14 Nordeste 0 -- -- 69
2019-06-01 01:00:00 14.4 9 Nordeste 12 Nordeste 0 -- -- 72
2019-06-01 00:00:00 14.8 5 Nordeste 12 Este 0 -- -- 71
2019-05-31 23:00:00 15.9 7 Nordeste 12 Nordeste 0 -- -- 67
2019-05-31 22:00:00 18.9 5 Este 17 Sudeste 0 -- -- 57
2019-05-31 21:00:00 21.6 9 Sudeste 25 Sur 0 -- -- 50
2019-05-31 20:00:00 24.2 9 Sur 28 Sur 0 -- -- 45
2019-05-31 19:00:00 27.8 8 Sudoeste 24 Sur 0 -- -- 29
2019-05-31 18:00:00 27.9 12 Sudoeste 25 Sudoeste 0 -- -- 29
2019-05-31 17:00:00 28.5 11 Sudoeste 26 Sudoeste 0 -- -- 32
2019-05-31 16:00:00 27.9 12 Sudoeste 24 Sudoeste 0 -- -- 32
2019-05-31 15:00:00 27.4 8 Sur 25 Sudoeste 0 -- -- 37
2019-05-31 14:00:00 26.8 9 Sudoeste 22 Sudoeste 0 -- -- 34
2019-05-31 13:00:00 25.5 13 Sur 23 Sudoeste 0 -- -- 38
2019-05-31 12:00:00 24.4 9 Sur 22 Sudeste 0 -- -- 38
2019-05-31 11:00:00 23 9 Sudeste 18 Sudeste 0 -- -- 41
2019-05-31 10:00:00 21.5 8 Sudeste 17 Sudeste 0 -- -- 47
2019-05-31 09:00:00 19.2 4 Este 12 Nordeste 0 -- -- 52
2019-05-31 08:00:00 14.9 8 Nordeste 14 Este 0 -- -- 73
2019-05-31 07:00:00 11.9 11 Nordeste 14 Nordeste 0 -- -- 80
2019-05-31 06:00:00 10.1 10 Nordeste 13 Nordeste 0 -- -- 86
2019-05-31 05:00:00 11.2 10 Nordeste 13 Nordeste 0 -- -- 83
2019-05-31 04:00:00 11.5 8 Nordeste 13 Nordeste 0 -- -- 84
2019-05-31 03:00:00 12 8 Nordeste 12 Este 0 -- -- 83
2019-05-31 02:00:00 11.5 6 Nordeste 10 Este 0 -- -- 84
2019-05-31 01:00:00 14.3 8 Nordeste 16 Nordeste 0 -- -- 74
2019-05-31 00:00:00 15.2 9 Nordeste 16 Este 0 -- -- 70
2019-05-30 23:00:00 16.6 9 Este 19 Sudeste 0 -- -- 65
2019-05-30 22:00:00 18.2 11 Sudeste 23 Sudeste 0 -- -- 61
2019-05-30 21:00:00 21.5 3 Oeste 14 Sudoeste 0 -- -- 45
2019-05-30 20:00:00 24.3 10 Sudoeste 19 Sudoeste 0 -- -- 34
2019-05-30 19:00:00 25.4 12 Sudoeste 22 Sudoeste 0 -- -- 34
2019-05-30 18:00:00 25.8 14 Sudoeste 27 Sudoeste 0 -- -- 37
2019-05-30 17:00:00 25.9 14 Sudoeste 28 Sudoeste 0 -- -- 37
2019-05-30 16:00:00 25.6 13 Sudoeste 29 Sudoeste 0 -- -- 37
2019-05-30 15:00:00 24.9 16 Sudoeste 27 Sudoeste 0 -- -- 39
2019-05-30 14:00:00 23.5 16 Sudoeste 28 Sudoeste 0 -- -- 42
2019-05-30 13:00:00 21.9 19 Sudoeste 27 Sudoeste 0 -- -- 47
2019-05-30 12:00:00 20.5 15 Sudoeste 23 Sur 0 -- -- 53
2019-05-30 11:00:00 19 12 Sudoeste 22 Sudoeste 0 -- -- 56
2019-05-30 10:00:00 17.2 10 Sudoeste 15 Sudoeste 0 -- -- 65
2019-05-30 09:00:00 15.9 5 Sudoeste 10 Nordeste 0 -- -- 71
2019-05-30 08:00:00 12.5 8 Este 12 Nordeste 0 -- -- 84
2019-05-30 07:00:00 7.9 5 Este 9 Nordeste 0 -- -- 96
2019-05-30 06:00:00 7.5 6 Nordeste 11 Este 0 -- -- 94
2019-05-30 05:00:00 8.1 4 Nordeste 11 Este 0 -- -- 91
2019-05-30 04:00:00 9.6 9 Este 14 Nordeste 0 -- -- 86
2019-05-30 03:00:00 12.2 11 Nordeste 20 Este 0 -- -- 80
2019-05-30 02:00:00 12.1 10 Este 20 Este 0 -- -- 82
2019-05-30 01:00:00 12.1 3 Este 17 Este 0 -- -- 63
2019-05-30 00:00:00 13.5 8 Este 17 Nordeste 0 -- -- 49
2019-05-29 23:00:00 14.7 12 Nordeste 21 Nordeste 0 -- -- 45
2019-05-29 22:00:00 17.6 13 Nordeste 23 Nordeste 0 -- -- 38
2019-05-29 21:00:00 19.1 12 Nordeste 21 Nordeste 0 -- -- 35
2019-05-29 20:00:00 21.6 12 Sudoeste 29 Oeste 0 -- -- 37
2019-05-29 19:00:00 22.7 17 Sudoeste 31 Sudoeste 0 -- -- 32
2019-05-29 18:00:00 23 18 Sudoeste 36 Sudoeste 0 -- -- 32
2019-05-29 17:00:00 23.2 20 Oeste 35 Sudoeste 0 -- -- 32
2019-05-29 16:00:00 22.6 18 Sudoeste 35 Sudoeste 0 -- -- 33
2019-05-29 15:00:00 22.3 22 Sudoeste 39 Sudoeste 0 -- -- 33
2019-05-29 14:00:00 21.7 18 Oeste 39 Sudoeste 0 -- -- 34
2019-05-29 13:00:00 20.2 21 Sudoeste 33 Sudoeste 0 -- -- 43
2019-05-29 12:00:00 18.2 15 Sudoeste 24 Sudoeste 0 -- -- 48
2019-05-29 11:00:00 17.1 11 Sudoeste 18 Sudoeste 0 -- -- 55
2019-05-29 10:00:00 15.6 10 Sur 15 Sur 0 -- -- 59
2019-05-29 09:00:00 13.4 6 Sudoeste 9 Sur 0 -- -- 63
2019-05-29 08:00:00 10.6 6 Este 10 Nordeste 0 -- -- 75
2019-05-29 07:00:00 5.6 4 Nordeste 10 Nordeste 0 -- -- 87
2019-05-29 06:00:00 5.5 6 Nordeste 12 Este 0 -- -- 88
2019-05-29 05:00:00 6.1 7 Nordeste 13 Este 0 -- -- 86
2019-05-29 04:00:00 6.9 8 Nordeste 13 Nordeste 0 -- -- 84
2019-05-29 03:00:00 7.9 12 Nordeste 14 Nordeste 0 -- -- 80
2019-05-29 02:00:00 7.4 7 Nordeste 10 Este 0 -- -- 82
2019-05-29 01:00:00 9.5 3 Nordeste 13 Este 0 -- -- 74
2019-05-29 00:00:00 12.5 5 Este 16 Este 0 -- -- 62
2019-05-28 23:00:00 15.5 5 Nordeste 18 Nordeste 0 -- -- 45
2019-05-28 22:00:00 17.1 9 Nordeste 21 Norte 0 -- -- 47
2019-05-28 21:00:00 17.7 9 Sudoeste 24 Oeste 0 -- -- 48
2019-05-28 20:00:00 20 14 Sudoeste 31 Sudoeste 0 -- -- 45
2019-05-28 19:00:00 21.7 21 Sudoeste 40 Sudoeste 0 -- -- 39
2019-05-28 18:00:00 22.4 25 Sudoeste 39 Sudoeste 0 -- -- 37
2019-05-28 17:00:00 23.3 16 Sudoeste 37 Sudoeste 0 -- -- 38
2019-05-28 16:00:00 22.6 19 Sudoeste 37 Sudoeste 0 -- -- 39
2019-05-28 15:00:00 22.2 15 Oeste 32 Sudoeste 0 -- -- 42
2019-05-28 14:00:00 20.6 18 Sudoeste 29 Sudoeste 0 -- -- 49
2019-05-28 13:00:00 18.9 15 Sudoeste 27 Oeste 0 -- -- 60
2019-05-28 12:00:00 18.3 15 Sur 23 Sudoeste 0 -- -- 62
2019-05-28 11:00:00 16.7 12 Sudoeste 21 Sudoeste 0 -- -- 65
2019-05-28 10:00:00 16.6 6 Sudoeste 13 Sudoeste 0 -- -- 65
2019-05-28 09:00:00 14.5 4 Sudeste 12 Este 0 -- -- 70
2019-05-28 08:00:00 11.6 7 Este 11 Nordeste 0 -- -- 82
2019-05-28 07:00:00 10.1 3 Nordeste 11 Nordeste 0 -- -- 84
2019-05-28 06:00:00 10.1 3 Nordeste 13 Nordeste 0 -- -- 87
2019-05-28 05:00:00 9.9 6 Este 12 Noroeste 0 -- -- 91
2019-05-28 04:00:00 11.5 3 Nordeste 19 Este 0 -- -- 88
2019-05-28 03:00:00 12.7 7 Sudeste 15 Nordeste 0 -- -- 85
2019-05-28 02:00:00 14.6 9 Nordeste 24 Nordeste 0 -- -- 81
2019-05-28 01:00:00 14.8 10 Nordeste 17 Nordeste 0 -- -- 83
2019-05-28 00:00:00 14.5 7 Nordeste 12 Este 0 -- -- 80
2019-05-27 23:00:00 14.8 7 Nordeste 10 Este 0 -- -- 75
2019-05-27 22:00:00 16.1 5 Nordeste 13 Nordeste 0 -- -- 70
2019-05-27 21:00:00 19.4 7 Nordeste 27 Oeste 0 -- -- 59
2019-05-27 20:00:00 20.9 17 Oeste 36 Oeste 0 -- -- 57
2019-05-27 19:00:00 21.7 10 Sudoeste 27 Oeste 0 -- -- 54
2019-05-27 18:00:00 23.8 17 Sudoeste 30 Sudoeste 0 -- -- 46
2019-05-27 17:00:00 23.8 16 Sudoeste 34 Sudoeste 0 -- -- 48
2019-05-27 16:00:00 22.6 18 Sudoeste 31 Sur 0 -- -- 50
2019-05-27 15:00:00 22.5 19 Sudoeste 31 Oeste 0 -- -- 49
2019-05-27 14:00:00 21.1 16 Sudoeste 32 Sudoeste 0 -- -- 55
2019-05-27 13:00:00 19.7 17 Sudoeste 32 Sudoeste 0 -- -- 56
2019-05-27 12:00:00 18.5 16 Sudoeste 28 Sudoeste 0 -- -- 64
2019-05-27 11:00:00 17.7 11 Sudoeste 18 Sudoeste 0 -- -- 65
2019-05-27 10:00:00 15.8 9 Sudoeste 17 Sudoeste 0 -- -- 73
2019-05-27 09:00:00 14.1 5 Este 9 Este 0 -- -- 79
2019-05-27 08:00:00 11.7 0 Calma 7 Nordeste 0 -- -- 88
2019-05-27 07:00:00 7.5 5 Nordeste 8 Norte 0 -- -- 97
2019-05-27 06:00:00 7.3 4 Norte 10 Nordeste 0 -- -- 96
2019-05-27 05:00:00 7.5 6 Nordeste 8 Nordeste 0 -- -- 94
2019-05-27 04:00:00 9.1 2 Sudeste 8 Este 0 -- -- 91
2019-05-27 03:00:00 9.9 2 Nordeste 12 Sur 0 -- -- 88
2019-05-27 02:00:00 11.8 3 Noroeste 9 Nordeste 0 -- -- 79
2019-05-27 01:00:00 12.8 3 Nordeste 14 Este 0 -- -- 71
2019-05-27 00:00:00 13.1 8 Este 15 Este 0 -- -- 59
2019-05-26 23:00:00 15.6 12 Nordeste 20 Nordeste 0 -- -- 49
2019-05-26 22:00:00 17.9 13 Nordeste 18 Nordeste 0 -- -- 40
2019-05-26 21:00:00 18.9 6 Nordeste 14 Nordeste 0 -- -- 41
2019-05-26 20:00:00 21.2 7 Noroeste 22 Sudoeste 0 -- -- 46
2019-05-26 19:00:00 21.1 8 Oeste 22 Oeste 0 -- -- 46
2019-05-26 18:00:00 22.9 14 Oeste 34 Sudoeste 0 -- -- 43
2019-05-26 17:00:00 23.5 18 Sudoeste 37 Sudoeste 0 -- -- 43
2019-05-26 16:00:00 23.7 21 Sudoeste 41 Sudoeste 0 -- -- 44
2019-05-26 15:00:00 23.3 17 Sudoeste 33 Sudoeste 0 -- -- 47
2019-05-26 14:00:00 22.3 18 Sudoeste 33 Sudoeste 0 -- -- 52
2019-05-26 13:00:00 19.5 21 Sudoeste 29 Sudoeste 0 -- -- 62
2019-05-26 12:00:00 18 13 Sudoeste 21 Sur 0 -- -- 65
2019-05-26 11:00:00 15.6 10 Sur 19 Sur 0 -- -- 75
2019-05-26 10:00:00 11.6 4 Sudoeste 14 Sudoeste 0 -- -- 92
2019-05-26 09:00:00 10.3 5 Sur 10 Oeste 0 -- -- 98
2019-05-26 08:00:00 9.7 0 Calma 5 Este 0 -- -- 98
2019-05-26 07:00:00 9.4 3 Este 7 Sur 0 -- -- 98
2019-05-26 06:00:00 8 3 Nordeste 6 Este 0 -- -- 96
2019-05-26 05:00:00 8.8 2 Nordeste 7 Nordeste 0 -- -- 97
2019-05-26 04:00:00 8.7 5 Nordeste 8 Este 0 -- -- 94
2019-05-26 03:00:00 10.3 4 Sudoeste 10 Sur 0 -- -- 92
2019-05-26 02:00:00 11.6 4 Sudoeste 9 Este 0 -- -- 91
2019-05-26 01:00:00 13.3 3 Sur 17 Nordeste 0 -- -- 83
2019-05-26 00:00:00 14.7 13 Nordeste 19 Nordeste 0 -- -- 60
2019-05-25 23:00:00 14 8 Nordeste 12 Nordeste 0 -- -- 73
2019-05-25 22:00:00 14.6 4 Nordeste 10 Noroeste 0 -- -- 78
2019-05-25 21:00:00 17 3 Sudeste 18 Sudoeste 0 -- -- 65
2019-05-25 20:00:00 20.2 10 Sudoeste 20 Sudoeste 0 -- -- 59
2019-05-25 19:00:00 20.8 9 Sudoeste 21 Sur 0 -- -- 57
2019-05-25 18:00:00 21.3 6 Sudoeste 11 Sudoeste 0 -- -- 58
2019-05-25 17:00:00 18.6 3 Oeste 14 Noroeste 0 -- -- 66
2019-05-25 16:00:00 17.6 5 Oeste 17 Sudoeste 0 -- -- 72
2019-05-25 15:00:00 19.1 8 Sudoeste 21 Sudoeste 0 -- -- 71
2019-05-25 14:00:00 17.9 8 Sudoeste 22 Sudoeste 0 -- -- 73
2019-05-25 13:00:00 18.7 16 Sudoeste 28 Sur 0 -- -- 75
2019-05-25 12:00:00 17.7 12 Sur 22 Sudoeste 0 -- -- 79
2019-05-25 11:00:00 15.1 8 Sur 15 Sur 0 -- -- 90
2019-05-25 10:00:00 13 4 Sur 9 Sur 0 -- -- 98
2019-05-25 09:00:00 12.2 6 Sudoeste 8 Sudoeste 0 -- -- 99
2019-05-25 08:00:00 11.9 5 Oeste 7 Sudoeste 0.2 -- -- 99
2019-05-25 07:00:00 11.5 0 Calma 5 Sudoeste 0 -- -- 99
2019-05-25 06:00:00 11.2 0 Calma 5 Sudeste 0 -- -- 99
2019-05-25 05:00:00 11 2 Nordeste 4 Norte 0 -- -- 98
2019-05-25 04:00:00 11 3 Norte 5 Este 0 -- -- 98
2019-05-25 03:00:00 11.1 3 Nordeste 5 Norte 0 -- -- 98
2019-05-25 02:00:00 11 4 Nordeste 7 Este 0 -- -- 97
2019-05-25 01:00:00 11.7 2 Nordeste 6 Este 0 -- -- 97
2019-05-25 00:00:00 12.2 3 Norte 5 Este 0 -- -- 96
2019-05-24 23:00:00 12.6 2 Nordeste 5 Este 0 -- -- 94
2019-05-24 22:00:00 13.2 3 Nordeste 5 Este 0 -- -- 91
2019-05-24 21:00:00 14 0 Calma 4 Sudeste 0 -- -- 87
2019-05-24 20:00:00 14.4 0 Calma 14 Este 0 -- -- 84
2019-05-24 19:00:00 14.9 7 Este 21 Este 0 -- -- 79
2019-05-24 18:00:00 14.6 11 Este 24 Nordeste 0 -- -- 81
2019-05-24 17:00:00 14.2 10 Este 21 Nordeste 0 -- -- 84
2019-05-24 16:00:00 14.9 9 Este 15 Este 0 -- -- 91
2019-05-24 15:00:00 14.5 3 Este 8 Nordeste 0.2 -- -- 93
2019-05-24 14:00:00 14.2 5 Este 12 Nordeste 1 -- -- 93
2019-05-24 13:00:00 13.7 5 Este 14 Nordeste 0.8 -- -- 94
2019-05-24 12:00:00 13.4 0 Calma 11 Oeste 5.4 -- -- 98
2019-05-24 11:00:00 13.5 5 Sudoeste 10 Este 1.2 -- -- 98
2019-05-24 10:00:00 13.7 4 Este 8 Este 1.4 -- -- 99
2019-05-24 09:00:00 13.5 0 Calma 6 Norte 2.4 -- -- 99
2019-05-24 08:00:00 13.3 3 Nordeste 8 Nordeste 3.8 -- -- 99
2019-05-24 07:00:00 13.4 6 Sudoeste 12 Sudoeste 2.2 -- -- 98
2019-05-24 06:00:00 13.7 8 Sudoeste 21 Oeste 0.2 -- -- 97
2019-05-24 05:00:00 13.8 12 Nordeste 21 Nordeste 0.4 -- -- 94
2019-05-24 04:00:00 13.9 12 Nordeste 21 Nordeste 0.8 -- -- 93
2019-05-24 03:00:00 14.3 11 Nordeste 17 Norte 1.8 -- -- 92
2019-05-24 02:00:00 16.5 9 Sudoeste 14 Sudoeste 0 -- -- 78
2019-05-24 01:00:00 17.1 5 Sudoeste 8 Sudoeste 0 -- -- 71
2019-05-24 00:00:00 18 0 Calma 25 Este 0 -- -- 67
2019-05-23 23:00:00 18.7 11 Nordeste 19 Nordeste 0 -- -- 67
2019-05-23 22:00:00 19.8 7 Nordeste 18 Sudeste 0 -- -- 64
2019-05-23 21:00:00 22 12 Sudeste 23 Sudoeste 0 -- -- 54
2019-05-23 20:00:00 24.9 14 Sudoeste 21 Sudoeste 0 -- -- 37
2019-05-23 19:00:00 26.2 8 Sudoeste 21 Sudoeste 0 -- -- 35
2019-05-23 18:00:00 26.5 10 Sudoeste 31 Sudoeste 0 -- -- 35
2019-05-23 17:00:00 26.4 16 Sudoeste 31 Sudoeste 0 -- -- 34
2019-05-23 16:00:00 27.2 20 Sudoeste 30 Sudoeste 0 -- -- 31
2019-05-23 15:00:00 27.9 14 Sudoeste 24 Sudoeste 0 -- -- 31
2019-05-23 14:00:00 26 14 Sudoeste 23 Sudoeste 0 -- -- 35
2019-05-23 13:00:00 25.5 9 Sur 24 Sur 0 -- -- 36
2019-05-23 12:00:00 24.9 12 Sudoeste 23 Sudoeste 0 -- -- 36
2019-05-23 11:00:00 23.3 9 Sudoeste 15 Sudoeste 0 -- -- 38
2019-05-23 10:00:00 22 4 Este 14 Este 0 -- -- 39
2019-05-23 09:00:00 18 12 Nordeste 18 Este 0 -- -- 46
2019-05-23 08:00:00 13.9 12 Nordeste 19 Nordeste 0 -- -- 53
2019-05-23 07:00:00 11.2 11 Nordeste 19 Nordeste 0 -- -- 59
2019-05-23 06:00:00 11.3 12 Nordeste 18 Nordeste 0 -- -- 58
2019-05-23 05:00:00 11.5 12 Nordeste 19 Nordeste 0 -- -- 59
2019-05-23 04:00:00 11 11 Nordeste 18 Nordeste 0 -- -- 62
2019-05-23 03:00:00 12.1 13 Nordeste 18 Nordeste 0 -- -- 56
2019-05-23 02:00:00 11.4 12 Nordeste 15 Nordeste 0 -- -- 62
2019-05-23 01:00:00 11.2 6 Nordeste 13 Norte 0 -- -- 63
2019-05-23 00:00:00 12.1 6 Nordeste 12 Nordeste 0 -- -- 62
2019-05-22 23:00:00 13.9 7 Nordeste 10 Este 0 -- -- 49
2019-05-22 22:00:00 13.2 6 Norte 8 Nordeste 0 -- -- 48
2019-05-22 21:00:00 19.5 0 Calma 12 Sudoeste 0 -- -- 32
2019-05-22 20:00:00 22.9 8 Oeste 15 Oeste 0 -- -- 24
2019-05-22 19:00:00 24.2 8 Sudoeste 23 Sur 0 -- -- 22
2019-05-22 18:00:00 24.8 10 Sudoeste 22 Sudoeste 0 -- -- 23
2019-05-22 17:00:00 24.4 11 Sur 30 Sudoeste 0 -- -- 24
2019-05-22 16:00:00 24.4 13 Sudoeste 27 Sur 0 -- -- 30
2019-05-22 15:00:00 23.9 13 Sudoeste 28 Sudoeste 0 -- -- 33
2019-05-22 14:00:00 23 15 Sudoeste 26 Sudoeste 0 -- -- 36
2019-05-22 13:00:00 22.3 11 Sudoeste 25 Sur 0 -- -- 44
2019-05-22 12:00:00 20.9 10 Sudoeste 21 Sudoeste 0 -- -- 52
2019-05-22 11:00:00 18.8 14 Sudoeste 22 Sudoeste 0 -- -- 60
2019-05-22 10:00:00 17.1 8 Sudeste 18 Sudeste 0 -- -- 65
2019-05-22 09:00:00 16 5 Sudeste 10 Sudeste 0 -- -- 71
2019-05-22 08:00:00 12.6 8 Nordeste 12 Este 0 -- -- 82
2019-05-22 07:00:00 8 6 Nordeste 9 Este 0 -- -- 94
2019-05-22 06:00:00 7.4 6 Nordeste 12 Este 0 -- -- 93
2019-05-22 05:00:00 8.5 5 Nordeste 11 Nordeste 0 -- -- 90
2019-05-22 04:00:00 9.5 5 Norte 10 Este 0 -- -- 88
2019-05-22 03:00:00 10.6 4 Nordeste 11 Este 0 -- -- 83
2019-05-22 02:00:00 12.4 8 Nordeste 16 Nordeste 0 -- -- 77
2019-05-22 01:00:00 11.8 6 Nordeste 13 Nordeste 0 -- -- 78
2019-05-22 00:00:00 12.3 11 Nordeste 13 Nordeste 0 -- -- 74